createdAt,value
2018-03-27T00:00:43.440Z,0
2018-03-27T00:01:44.041Z,0
2018-03-27T00:02:44.644Z,0
2018-03-27T00:03:45.275Z,0
2018-03-27T00:04:45.899Z,0
2018-03-27T00:05:46.505Z,0
2018-03-27T00:06:47.109Z,0
2018-03-27T00:07:47.717Z,0
2018-03-27T00:08:48.315Z,0
2018-03-27T00:09:48.918Z,0
2018-03-27T00:10:49.544Z,0
2018-03-27T00:11:50.148Z,0
2018-03-27T00:12:50.755Z,0
2018-03-27T00:13:51.380Z,0
2018-03-27T00:14:52.003Z,0
2018-03-27T00:15:52.605Z,0
2018-03-27T00:16:53.208Z,0
2018-03-27T00:17:53.811Z,0
2018-03-27T00:18:54.438Z,0
2018-03-27T00:19:55.041Z,0
2018-03-27T00:20:55.646Z,0
2018-03-27T00:21:56.250Z,0
2018-03-27T00:22:56.852Z,0
2018-03-27T00:23:57.455Z,0
2018-03-27T00:24:58.059Z,0
2018-03-27T00:25:58.663Z,0
2018-03-27T00:26:59.271Z,0
2018-03-27T00:27:59.875Z,0
2018-03-27T00:29:00.498Z,0
2018-03-27T00:30:01.100Z,0
2018-03-27T00:31:01.703Z,0
2018-03-27T00:32:02.307Z,0
2018-03-27T00:33:02.880Z,0
2018-03-27T00:34:03.464Z,0
2018-03-27T00:35:04.065Z,0
2018-03-27T00:36:04.653Z,0
2018-03-27T00:37:05.246Z,0
2018-03-27T00:38:05.832Z,0
2018-03-27T00:39:06.419Z,0
2018-03-27T00:40:07.009Z,0
2018-03-27T00:41:07.649Z,0
2018-03-27T00:42:08.188Z,0
2018-03-27T00:43:08.781Z,0
2018-03-27T00:44:09.429Z,0
2018-03-27T00:45:09.970Z,0
2018-03-27T00:46:10.559Z,0
2018-03-27T00:47:11.146Z,0
2018-03-27T00:48:11.732Z,0
2018-03-27T00:49:12.317Z,0
2018-03-27T00:50:12.904Z,0
2018-03-27T00:51:13.502Z,0
2018-03-27T00:52:14.097Z,0
2018-03-27T00:53:14.698Z,0
2018-03-27T00:54:15.285Z,0
2018-03-27T00:55:15.881Z,0
2018-03-27T00:56:16.469Z,0
2018-03-27T00:57:17.055Z,0
2018-03-27T00:58:17.651Z,0
2018-03-27T00:59:18.248Z,0
2018-03-27T01:00:18.838Z,0
2018-03-27T01:01:19.432Z,0
2018-03-27T01:02:20.023Z,0
2018-03-27T01:03:20.611Z,0
2018-03-27T01:04:21.196Z,0
2018-03-27T01:05:21.787Z,0
2018-03-27T01:06:22.379Z,0
2018-03-27T01:07:22.974Z,0
2018-03-27T01:08:23.564Z,0
2018-03-27T01:09:24.181Z,0
2018-03-27T01:10:24.858Z,0
2018-03-27T01:11:25.450Z,0
2018-03-27T01:12:26.038Z,0
2018-03-27T01:13:26.641Z,0
2018-03-27T01:14:27.225Z,0
2018-03-27T01:15:27.817Z,0
2018-03-27T01:16:28.412Z,0
2018-03-27T01:17:28.997Z,0
2018-03-27T01:18:29.585Z,0
2018-03-27T01:19:30.169Z,0
2018-03-27T01:20:30.768Z,0
2018-03-27T01:21:31.355Z,0
2018-03-27T01:22:31.938Z,0
2018-03-27T01:23:32.531Z,0
2018-03-27T01:24:33.122Z,0
2018-03-27T01:25:33.703Z,0
2018-03-27T01:26:34.293Z,0
2018-03-27T01:27:34.886Z,0
2018-03-27T01:28:35.474Z,0
2018-03-27T01:29:36.069Z,0
2018-03-27T01:30:36.656Z,0
2018-03-27T01:31:37.250Z,0
2018-03-27T01:32:37.842Z,0
2018-03-27T01:33:38.438Z,0
2018-03-27T01:34:39.033Z,0
2018-03-27T01:35:39.620Z,0
2018-03-27T01:36:40.211Z,0
2018-03-27T01:37:40.798Z,0
2018-03-27T01:38:41.388Z,0
2018-03-27T01:39:41.978Z,0
2018-03-27T01:40:42.566Z,0
2018-03-27T01:41:43.163Z,0
2018-03-27T01:42:43.758Z,0
2018-03-27T01:43:44.348Z,0
2018-03-27T01:44:44.940Z,0
2018-03-27T01:45:45.528Z,0
2018-03-27T01:46:46.115Z,0
2018-03-27T01:47:46.704Z,0
2018-03-27T01:48:47.294Z,0
2018-03-27T01:49:47.897Z,0
2018-03-27T01:50:48.471Z,0
2018-03-27T01:51:49.055Z,0
2018-03-27T01:52:49.641Z,0
2018-03-27T01:53:50.239Z,0
2018-03-27T01:54:50.828Z,0
2018-03-27T01:55:51.416Z,0
2018-03-27T01:56:51.997Z,0
2018-03-27T01:57:52.608Z,0
2018-03-27T01:58:53.179Z,0
2018-03-27T01:59:53.766Z,0
2018-03-27T02:00:54.362Z,0
2018-03-27T02:01:54.960Z,0
2018-03-27T02:02:55.557Z,0
2018-03-27T02:03:56.140Z,0
2018-03-27T02:04:56.728Z,0
2018-03-27T02:05:57.318Z,0
2018-03-27T02:06:57.909Z,0
2018-03-27T02:07:58.498Z,0
2018-03-27T02:08:59.311Z,0
2018-03-27T02:09:59.905Z,0
2018-03-27T02:11:00.492Z,0
2018-03-27T02:12:01.076Z,0
2018-03-27T02:13:01.669Z,0
2018-03-27T02:14:02.256Z,0
2018-03-27T02:15:02.859Z,0
2018-03-27T02:16:03.453Z,0
2018-03-27T02:17:04.036Z,0
2018-03-27T02:18:04.630Z,0
2018-03-27T02:19:05.219Z,0
2018-03-27T02:20:06.086Z,0
2018-03-27T02:21:06.671Z,0
2018-03-27T02:22:07.264Z,0
2018-03-27T02:23:07.854Z,0
2018-03-27T02:24:08.456Z,0
2018-03-27T02:25:09.037Z,0
2018-03-27T02:26:09.621Z,0
2018-03-27T02:27:10.267Z,0
2018-03-27T02:28:10.789Z,0
2018-03-27T02:29:11.377Z,0
2018-03-27T02:30:11.969Z,0
2018-03-27T02:31:12.562Z,0
2018-03-27T02:32:13.150Z,0
2018-03-27T02:33:13.756Z,0
2018-03-27T02:34:14.337Z,0
2018-03-27T02:35:14.927Z,0
2018-03-27T02:36:15.522Z,0
2018-03-27T02:37:16.109Z,0
2018-03-27T02:38:16.699Z,0
2018-03-27T02:39:17.282Z,0
2018-03-27T02:40:17.868Z,0
2018-03-27T02:41:18.453Z,0
2018-03-27T02:42:19.043Z,0
2018-03-27T02:43:19.636Z,0
2018-03-27T02:44:20.224Z,0
2018-03-27T02:45:20.811Z,0
2018-03-27T02:46:21.393Z,0
2018-03-27T02:47:21.982Z,0
2018-03-27T02:48:22.569Z,0
2018-03-27T02:49:23.166Z,0
2018-03-27T02:50:23.760Z,0
2018-03-27T02:51:24.347Z,0
2018-03-27T02:52:24.942Z,0
2018-03-27T02:53:25.531Z,0
2018-03-27T02:54:26.116Z,0
2018-03-27T02:55:26.698Z,0
2018-03-27T02:56:27.292Z,0
2018-03-27T02:57:27.882Z,0
2018-03-27T02:58:28.476Z,0
2018-03-27T02:59:29.062Z,0
2018-03-27T03:00:29.649Z,0
2018-03-27T03:01:30.247Z,0
2018-03-27T03:02:30.838Z,0
2018-03-27T03:03:31.425Z,0
2018-03-27T03:04:32.017Z,0
2018-03-27T03:05:32.608Z,0
2018-03-27T03:06:33.210Z,0
2018-03-27T03:07:33.782Z,0
2018-03-27T03:08:34.368Z,0
2018-03-27T03:09:34.959Z,0
2018-03-27T03:10:35.550Z,0
2018-03-27T03:11:36.131Z,0
2018-03-27T03:12:36.719Z,0
2018-03-27T03:13:37.317Z,0
2018-03-27T03:14:37.908Z,0
2018-03-27T03:15:38.498Z,0
2018-03-27T03:16:39.088Z,0
2018-03-27T03:17:39.682Z,0
2018-03-27T03:18:40.266Z,0
2018-03-27T03:19:40.854Z,0
2018-03-27T03:20:41.451Z,0
2018-03-27T03:21:42.039Z,0
2018-03-27T03:22:42.620Z,0
2018-03-27T03:23:43.214Z,0
2018-03-27T03:24:43.804Z,0
2018-03-27T03:25:44.398Z,0
2018-03-27T03:26:44.999Z,0
2018-03-27T03:27:45.582Z,0
2018-03-27T03:28:46.170Z,0
2018-03-27T03:29:46.758Z,0
2018-03-27T03:30:47.357Z,0
2018-03-27T03:31:47.934Z,0
2018-03-27T03:32:48.527Z,0
2018-03-27T03:33:49.114Z,0
2018-03-27T03:34:49.707Z,0
2018-03-27T03:35:50.290Z,0
2018-03-27T03:36:50.872Z,0
2018-03-27T03:37:51.459Z,0
2018-03-27T03:38:52.048Z,0
2018-03-27T03:39:52.645Z,0
2018-03-27T03:40:53.232Z,0
2018-03-27T03:41:53.823Z,0
2018-03-27T03:42:54.415Z,0
2018-03-27T03:43:54.994Z,0
2018-03-27T03:44:55.599Z,0
2018-03-27T03:45:56.200Z,0
2018-03-27T03:46:56.811Z,0
2018-03-27T03:47:57.408Z,0
2018-03-27T03:48:57.987Z,0
2018-03-27T03:49:58.568Z,0
2018-03-27T03:50:59.251Z,0
2018-03-27T03:51:59.826Z,0
2018-03-27T03:53:00.455Z,0
2018-03-27T03:54:00.997Z,0
2018-03-27T03:55:01.586Z,0
2018-03-27T03:56:02.176Z,0
2018-03-27T03:57:02.761Z,0
2018-03-27T03:58:03.360Z,0
2018-03-27T03:59:03.949Z,0
2018-03-27T04:00:04.528Z,0
2018-03-27T04:01:05.114Z,0
2018-03-27T04:02:05.719Z,0
2018-03-27T04:03:06.294Z,0
2018-03-27T04:04:06.891Z,0
2018-03-27T04:05:07.476Z,0
2018-03-27T04:06:08.070Z,0
2018-03-27T04:07:08.657Z,0
2018-03-27T04:08:09.259Z,0
2018-03-27T04:09:09.835Z,0
2018-03-27T04:10:10.426Z,0
2018-03-27T04:11:11.010Z,0
2018-03-27T04:12:11.597Z,0
2018-03-27T04:13:12.185Z,0
2018-03-27T04:14:12.775Z,0
2018-03-27T04:15:13.362Z,0
2018-03-27T04:16:13.947Z,0
2018-03-27T04:17:14.535Z,0
2018-03-27T04:18:15.119Z,0
2018-03-27T04:19:15.708Z,0
2018-03-27T04:20:16.297Z,0
2018-03-27T04:21:16.905Z,0
2018-03-27T04:22:17.489Z,0
2018-03-27T04:23:18.071Z,0
2018-03-27T04:24:18.659Z,0
2018-03-27T04:25:19.253Z,0
2018-03-27T04:26:19.839Z,0
2018-03-27T04:27:20.429Z,0
2018-03-27T04:28:21.022Z,0
2018-03-27T04:29:21.606Z,0
2018-03-27T04:30:22.199Z,0
2018-03-27T04:31:22.787Z,0
2018-03-27T04:32:23.375Z,0
2018-03-27T04:33:23.967Z,0
2018-03-27T04:34:24.550Z,0
2018-03-27T04:35:25.146Z,0
2018-03-27T04:36:25.726Z,0
2018-03-27T04:37:26.311Z,0
2018-03-27T04:38:26.908Z,0
2018-03-27T04:39:27.504Z,0
2018-03-27T04:40:28.104Z,0
2018-03-27T04:41:28.684Z,0
2018-03-27T04:42:29.272Z,0
2018-03-27T04:43:29.863Z,0
2018-03-27T04:44:30.462Z,0
2018-03-27T04:45:31.037Z,0
2018-03-27T04:46:31.633Z,0
2018-03-27T04:47:32.228Z,0
2018-03-27T04:48:32.820Z,0
2018-03-27T04:49:33.410Z,4
2018-03-27T04:50:33.998Z,4
2018-03-27T04:51:34.586Z,0
2018-03-27T04:52:35.177Z,4
2018-03-27T04:53:35.761Z,4
2018-03-27T04:54:36.349Z,4
2018-03-27T04:55:36.935Z,8
2018-03-27T04:56:37.526Z,8
2018-03-27T04:57:38.115Z,12
2018-03-27T04:58:38.712Z,12
2018-03-27T04:59:39.289Z,12
2018-03-27T05:00:39.902Z,16
2018-03-27T05:01:40.476Z,24
2018-03-27T05:02:41.081Z,24
2018-03-27T05:03:41.659Z,28
2018-03-27T05:04:42.243Z,36
2018-03-27T05:05:42.829Z,44
2018-03-27T05:06:43.411Z,52
2018-03-27T05:07:44.048Z,64
2018-03-27T05:08:44.685Z,72
2018-03-27T05:09:45.275Z,84
2018-03-27T05:10:45.859Z,96
2018-03-27T05:11:46.448Z,112
2018-03-27T05:12:47.040Z,128
2018-03-27T05:13:47.732Z,144
2018-03-27T05:14:48.271Z,168
2018-03-27T05:15:48.870Z,188
2018-03-27T05:16:49.522Z,216
2018-03-27T05:17:50.100Z,240
2018-03-27T05:18:50.683Z,272
2018-03-27T05:19:51.277Z,304
2018-03-27T05:20:51.871Z,336
2018-03-27T05:21:52.464Z,372
2018-03-27T05:22:53.060Z,416
2018-03-27T05:23:53.653Z,456
2018-03-27T05:24:54.240Z,500
2018-03-27T05:25:54.887Z,548
2018-03-27T05:26:55.432Z,600
2018-03-27T05:27:56.025Z,652
2018-03-27T05:28:56.650Z,708
2018-03-27T05:29:57.236Z,768
2018-03-27T05:30:57.870Z,832
2018-03-27T05:31:58.444Z,900
2018-03-27T05:32:59.047Z,972
2018-03-27T05:33:59.637Z,1052
2018-03-27T05:35:00.234Z,1140
2018-03-27T05:36:00.827Z,1256
2018-03-27T05:37:01.422Z,1376
2018-03-27T05:38:02.017Z,1492
2018-03-27T05:39:02.621Z,1592
2018-03-27T05:40:03.308Z,1656
2018-03-27T05:41:03.842Z,1704
2018-03-27T05:42:04.437Z,1732
2018-03-27T05:43:05.020Z,1768
2018-03-27T05:44:05.674Z,1832
2018-03-27T05:45:06.232Z,1908
2018-03-27T05:46:06.820Z,1988
2018-03-27T05:47:07.412Z,2084
2018-03-27T05:48:08.007Z,2192
2018-03-27T05:49:08.599Z,2272
2018-03-27T05:50:09.193Z,2352
2018-03-27T05:51:09.791Z,2436
2018-03-27T05:52:10.383Z,2520
2018-03-27T05:53:10.971Z,2624
2018-03-27T05:54:11.562Z,2752
2018-03-27T05:55:12.157Z,2900
2018-03-27T05:56:12.756Z,3052
2018-03-27T05:57:13.339Z,3212
2018-03-27T05:58:13.935Z,3308
2018-03-27T05:59:14.525Z,3464
2018-03-27T06:00:15.115Z,3616
2018-03-27T06:01:15.724Z,3744
2018-03-27T06:02:16.307Z,3808
2018-03-27T06:03:16.899Z,4016
2018-03-27T06:04:17.489Z,4096
2018-03-27T06:05:18.092Z,4296
2018-03-27T06:06:18.768Z,4532
2018-03-27T06:07:19.387Z,4692
2018-03-27T06:08:19.980Z,4792
2018-03-27T06:09:20.607Z,4996
2018-03-27T06:10:21.179Z,5184
2018-03-27T06:11:21.887Z,5172
2018-03-27T06:12:22.484Z,4852
2018-03-27T06:13:23.112Z,5048
2018-03-27T06:14:23.705Z,4832
2018-03-27T06:15:24.321Z,5780
2018-03-27T06:16:24.907Z,6036
2018-03-27T06:17:25.542Z,6580
2018-03-27T06:18:26.151Z,6784
2018-03-27T06:19:26.809Z,6952
2018-03-27T06:20:27.406Z,6952
2018-03-27T06:21:28.027Z,6404
2018-03-27T06:22:28.727Z,6368
2018-03-27T06:23:29.297Z,7256
2018-03-27T06:24:29.984Z,7900
2018-03-27T06:25:30.637Z,8152
2018-03-27T06:26:31.247Z,8512
2018-03-27T06:27:31.870Z,8744
2018-03-27T06:28:32.521Z,9028
2018-03-27T06:29:33.194Z,9288
2018-03-27T06:30:33.741Z,9588
2018-03-27T06:31:34.356Z,10012
2018-03-27T06:32:34.948Z,9980
2018-03-27T06:33:35.664Z,9016
2018-03-27T06:34:36.299Z,8452
2018-03-27T06:35:36.882Z,9556
2018-03-27T06:36:37.570Z,10552
2018-03-27T06:37:38.242Z,10852
2018-03-27T06:38:38.882Z,11200
2018-03-27T06:39:39.507Z,11540
2018-03-27T06:40:40.119Z,11772
2018-03-27T06:41:40.809Z,11640
2018-03-27T06:42:41.398Z,10232
2018-03-27T06:43:42.069Z,9416
2018-03-27T06:44:42.723Z,10392
2018-03-27T06:45:43.337Z,13244
2018-03-27T06:46:43.961Z,13936
2018-03-27T06:47:44.658Z,13688
2018-03-27T06:48:45.354Z,14688
2018-03-27T06:49:46.181Z,17376
2018-03-27T06:50:46.837Z,18592
2018-03-27T06:51:47.514Z,16064
2018-03-27T06:52:48.053Z,15560
2018-03-27T06:53:48.701Z,12004
2018-03-27T06:54:49.264Z,9864
2018-03-27T06:55:49.865Z,9292
2018-03-27T06:56:50.469Z,9060
2018-03-27T06:57:51.074Z,9428
2018-03-27T06:58:51.675Z,10252
2018-03-27T06:59:52.283Z,11376
2018-03-27T07:00:52.890Z,12356
2018-03-27T07:01:53.505Z,12836
2018-03-27T07:02:54.105Z,12928
2018-03-27T07:03:54.720Z,13140
2018-03-27T07:04:55.316Z,13148
2018-03-27T07:05:55.918Z,12728
2018-03-27T07:06:56.529Z,11416
2018-03-27T07:07:57.119Z,11108
2018-03-27T07:08:57.726Z,11644
2018-03-27T07:09:58.330Z,12384
2018-03-27T07:10:58.926Z,12880
2018-03-27T07:11:59.551Z,12480
2018-03-27T07:13:00.140Z,11544
2018-03-27T07:14:00.765Z,10564
2018-03-27T07:15:01.330Z,9692
2018-03-27T07:16:01.928Z,9304
2018-03-27T07:17:02.535Z,9924
2018-03-27T07:18:03.138Z,11256
2018-03-27T07:19:03.769Z,12108
2018-03-27T07:20:04.352Z,12596
2018-03-27T07:21:04.957Z,13384
2018-03-27T07:22:05.558Z,13892
2018-03-27T07:23:06.163Z,13888
2018-03-27T07:24:06.765Z,13324
2018-03-27T07:25:07.363Z,12664
2018-03-27T07:26:07.962Z,12772
2018-03-27T07:27:08.562Z,13928
2018-03-27T07:28:09.162Z,16016
2018-03-27T07:29:09.767Z,15780
2018-03-27T07:30:10.384Z,16104
2018-03-27T07:31:10.973Z,16392
2018-03-27T07:32:11.571Z,16828
2018-03-27T07:33:12.236Z,17244
2018-03-27T07:34:12.813Z,17100
2018-03-27T07:35:13.425Z,16836
2018-03-27T07:36:14.018Z,16972
2018-03-27T07:37:14.621Z,17312
2018-03-27T07:38:15.223Z,18856
2018-03-27T07:39:15.826Z,21152
2018-03-27T07:40:16.432Z,22048
2018-03-27T07:41:17.037Z,21312
2018-03-27T07:42:17.639Z,20288
2018-03-27T07:43:18.247Z,18684
2018-03-27T07:44:18.851Z,18088
2018-03-27T07:45:19.463Z,18176
2018-03-27T07:46:20.055Z,18116
2018-03-27T07:47:20.657Z,17172
2018-03-27T07:48:21.258Z,15904
2018-03-27T07:49:21.855Z,14980
2018-03-27T07:50:22.530Z,14620
2018-03-27T07:51:23.173Z,14884
2018-03-27T07:52:23.769Z,16088
2018-03-27T07:53:24.370Z,17352
2018-03-27T07:54:25.041Z,17628
2018-03-27T07:55:25.667Z,17764
2018-03-27T07:56:26.263Z,19136
2018-03-27T07:57:26.867Z,20672
2018-03-27T07:58:27.469Z,22048
2018-03-27T07:59:28.066Z,23872
2018-03-27T08:00:28.668Z,25088
2018-03-27T08:01:29.276Z,25184
2018-03-27T08:02:29.879Z,24224
2018-03-27T08:03:30.536Z,25184
2018-03-27T08:04:31.089Z,26272
2018-03-27T08:05:31.691Z,24704
2018-03-27T08:06:32.290Z,24288
2018-03-27T08:07:32.892Z,24448
2018-03-27T08:08:33.500Z,25344
2018-03-27T08:09:34.150Z,36960
2018-03-27T08:10:34.725Z,25824
2018-03-27T08:11:35.326Z,31936
2018-03-27T08:12:35.924Z,24864
2018-03-27T08:13:36.531Z,34048
2018-03-27T08:14:37.140Z,35808
2018-03-27T08:15:37.752Z,34912
2018-03-27T08:16:38.359Z,35872
2018-03-27T08:17:38.990Z,36864
2018-03-27T08:18:39.570Z,26016
2018-03-27T08:19:40.208Z,25728
2018-03-27T08:20:40.792Z,26464
2018-03-27T08:21:41.401Z,27872
2018-03-27T08:22:42.000Z,31808
2018-03-27T08:23:42.610Z,30976
2018-03-27T08:24:43.221Z,41728
2018-03-27T08:25:43.826Z,26752
2018-03-27T08:26:44.430Z,25120
2018-03-27T08:27:45.045Z,25120
2018-03-27T08:28:45.646Z,26880
2018-03-27T08:29:46.249Z,24256
2018-03-27T08:30:46.857Z,23328
2018-03-27T08:31:47.462Z,25152
2018-03-27T08:32:48.065Z,21888
2018-03-27T08:33:48.672Z,21952
2018-03-27T08:34:49.276Z,21888
2018-03-27T08:35:49.880Z,22688
2018-03-27T08:36:50.484Z,21984
2018-03-27T08:37:51.092Z,22368
2018-03-27T08:38:51.693Z,23488
2018-03-27T08:39:52.296Z,24608
2018-03-27T08:40:52.904Z,24896
2018-03-27T08:41:53.500Z,23904
2018-03-27T08:42:54.108Z,23040
2018-03-27T08:43:54.715Z,23392
2018-03-27T08:44:55.315Z,24928
2018-03-27T08:45:55.916Z,25824
2018-03-27T08:46:56.518Z,25792
2018-03-27T08:47:57.122Z,25760
2018-03-27T08:48:57.732Z,25792
2018-03-27T08:49:58.340Z,26208
2018-03-27T08:50:58.937Z,26592
2018-03-27T08:51:59.548Z,27648
2018-03-27T08:53:00.150Z,25280
2018-03-27T08:54:00.754Z,25024
2018-03-27T08:55:01.357Z,24608
2018-03-27T08:56:01.952Z,23840
2018-03-27T08:57:02.559Z,23456
2018-03-27T08:58:03.214Z,20160
2018-03-27T08:59:03.790Z,19424
2018-03-27T09:00:04.390Z,20864
2018-03-27T09:01:04.995Z,23328
2018-03-27T09:02:05.603Z,26688
2018-03-27T09:03:06.208Z,29376
2018-03-27T09:04:06.810Z,31360
2018-03-27T09:05:07.415Z,29568
2018-03-27T09:06:08.017Z,25536
2018-03-27T09:07:08.619Z,23424
2018-03-27T09:08:09.226Z,22816
2018-03-27T09:09:09.831Z,23520
2018-03-27T09:10:10.433Z,24416
2018-03-27T09:11:11.045Z,24640
2018-03-27T09:12:11.650Z,25664
2018-03-27T09:13:12.249Z,24992
2018-03-27T09:14:12.852Z,24992
2018-03-27T09:15:13.497Z,24000
2018-03-27T09:16:14.119Z,26112
2018-03-27T09:17:14.713Z,29056
2018-03-27T09:18:15.314Z,34752
2018-03-27T09:19:15.914Z,37952
2018-03-27T09:20:16.516Z,35008
2018-03-27T09:21:17.120Z,39872
2018-03-27T09:22:17.719Z,41312
2018-03-27T09:23:18.333Z,43840
2018-03-27T09:24:18.985Z,56544
2018-03-27T09:25:19.618Z,43520
2018-03-27T09:26:20.219Z,42080
2018-03-27T09:27:20.827Z,39232
2018-03-27T09:28:21.436Z,36608
2018-03-27T09:29:22.043Z,32352
2018-03-27T09:30:22.657Z,30304
2018-03-27T09:31:23.249Z,29888
2018-03-27T09:32:23.853Z,30912
2018-03-27T09:33:24.465Z,31328
2018-03-27T09:34:25.073Z,32768
2018-03-27T09:35:25.675Z,36256
2018-03-27T09:36:26.279Z,41344
2018-03-27T09:37:26.885Z,43392
2018-03-27T09:38:27.496Z,42912
2018-03-27T09:39:28.107Z,47296
2018-03-27T09:40:28.713Z,39008
2018-03-27T09:41:29.411Z,41952
2018-03-27T09:42:29.954Z,38208
2018-03-27T09:43:30.567Z,47488
2018-03-27T09:44:31.175Z,49696
2018-03-27T09:45:31.812Z,46016
2018-03-27T09:46:32.377Z,45632
2018-03-27T09:47:32.982Z,43456
2018-03-27T09:48:33.609Z,50784
2018-03-27T09:49:34.211Z,46272
2018-03-27T09:50:34.824Z,47616
2018-03-27T09:51:35.434Z,49824
2018-03-27T09:52:36.055Z,58112
2018-03-27T09:53:36.662Z,48960
2018-03-27T09:54:37.277Z,42528
2018-03-27T09:55:37.901Z,30208
2018-03-27T09:56:38.513Z,25056
2018-03-27T09:57:39.124Z,22784
2018-03-27T09:58:39.730Z,22464
2018-03-27T09:59:40.347Z,24992
2018-03-27T10:00:40.954Z,27776
2018-03-27T10:01:41.552Z,42656
2018-03-27T10:02:42.173Z,37056
2018-03-27T10:03:42.780Z,39104
2018-03-27T10:04:43.391Z,43936
2018-03-27T10:05:44.015Z,52704
2018-03-27T10:06:44.617Z,66720
2018-03-27T10:07:45.218Z,57920
2018-03-27T10:08:45.826Z,64448
2018-03-27T10:09:46.442Z,72640
2018-03-27T10:10:47.046Z,58368
2018-03-27T10:11:47.653Z,51104
2018-03-27T10:12:48.263Z,57216
2018-03-27T10:13:48.878Z,39200
2018-03-27T10:14:49.484Z,30816
2018-03-27T10:15:50.134Z,31872
2018-03-27T10:16:50.689Z,33760
2018-03-27T10:17:51.292Z,35616
2018-03-27T10:18:51.900Z,45696
2018-03-27T10:19:52.500Z,43328
2018-03-27T10:20:53.111Z,75488
2018-03-27T10:21:53.751Z,49408
2018-03-27T10:22:54.331Z,48096
2018-03-27T10:23:54.935Z,47040
2018-03-27T10:24:55.553Z,45024
2018-03-27T10:25:56.145Z,45152
2018-03-27T10:26:56.762Z,43328
2018-03-27T10:27:57.405Z,36672
2018-03-27T10:28:58.012Z,33984
2018-03-27T10:29:58.614Z,33728
2018-03-27T10:30:59.218Z,35552
2018-03-27T10:31:59.874Z,37088
2018-03-27T10:33:00.499Z,36352
2018-03-27T10:34:01.050Z,36832
2018-03-27T10:35:01.666Z,35840
2018-03-27T10:36:02.267Z,35360
2018-03-27T10:37:02.884Z,35360
2018-03-27T10:38:03.497Z,38752
2018-03-27T10:39:04.116Z,43808
2018-03-27T10:40:04.711Z,42880
2018-03-27T10:41:05.329Z,45824
2018-03-27T10:42:05.928Z,42848
2018-03-27T10:43:06.538Z,36160
2018-03-27T10:44:07.129Z,31488
2018-03-27T10:45:07.737Z,26400
2018-03-27T10:46:08.341Z,23456
2018-03-27T10:47:08.944Z,22656
2018-03-27T10:48:09.557Z,23040
2018-03-27T10:49:10.165Z,24256
2018-03-27T10:50:10.772Z,24384
2018-03-27T10:51:11.378Z,24544
2018-03-27T10:52:11.973Z,24160
2018-03-27T10:53:12.584Z,23680
2018-03-27T10:54:13.194Z,25056
2018-03-27T10:55:13.789Z,27840
2018-03-27T10:56:14.404Z,33984
2018-03-27T10:57:15.006Z,37952
2018-03-27T10:58:15.615Z,38464
2018-03-27T10:59:16.213Z,41184
2018-03-27T11:00:16.820Z,43328
2018-03-27T11:01:17.432Z,44128
2018-03-27T11:02:18.061Z,45024
2018-03-27T11:03:18.680Z,45440
2018-03-27T11:04:19.282Z,35904
2018-03-27T11:05:19.914Z,30976
2018-03-27T11:06:20.550Z,28224
2018-03-27T11:07:21.191Z,27776
2018-03-27T11:08:21.843Z,28320
2018-03-27T11:09:22.461Z,29856
2018-03-27T11:10:23.152Z,31808
2018-03-27T11:11:23.766Z,35776
2018-03-27T11:12:24.457Z,40480
2018-03-27T11:13:25.190Z,43200
2018-03-27T11:14:25.877Z,40992
2018-03-27T11:15:26.695Z,37280
2018-03-27T11:16:27.296Z,32672
2018-03-27T11:17:27.937Z,29120
2018-03-27T11:18:28.586Z,26240
2018-03-27T11:19:29.213Z,23584
2018-03-27T11:20:29.979Z,22080
2018-03-27T11:21:30.625Z,20192
2018-03-27T11:22:31.295Z,20736
2018-03-27T11:23:31.918Z,21056
2018-03-27T11:24:32.620Z,22272
2018-03-27T11:25:33.294Z,23456
2018-03-27T11:26:33.900Z,24160
2018-03-27T11:27:34.555Z,23584
2018-03-27T11:28:35.202Z,23104
2018-03-27T11:29:35.837Z,22464
2018-03-27T11:30:36.511Z,21248
2018-03-27T11:31:37.166Z,20352
2018-03-27T11:32:37.853Z,20896
2018-03-27T11:33:38.579Z,21152
2018-03-27T11:34:39.444Z,21312
2018-03-27T11:35:40.171Z,21504
2018-03-27T11:36:40.784Z,20320
2018-03-27T11:37:41.455Z,18420
2018-03-27T11:38:42.090Z,17324
2018-03-27T11:39:42.739Z,16560
2018-03-27T11:40:43.373Z,16024
2018-03-27T11:41:44.089Z,16016
2018-03-27T11:42:44.655Z,16784
2018-03-27T11:43:45.311Z,17424
2018-03-27T11:44:45.952Z,17148
2018-03-27T11:45:46.574Z,16136
2018-03-27T11:46:47.180Z,15336
2018-03-27T11:47:47.774Z,15220
2018-03-27T11:48:48.438Z,15280
2018-03-27T11:49:49.022Z,15096
2018-03-27T11:50:49.640Z,15440
2018-03-27T11:51:50.277Z,17280
2018-03-27T11:52:51.154Z,19968
2018-03-27T11:53:51.843Z,21888
2018-03-27T11:54:52.972Z,22720
2018-03-27T11:55:53.615Z,22688
2018-03-27T11:56:54.214Z,22048
2018-03-27T11:57:54.885Z,21248
2018-03-27T11:58:55.561Z,20096
2018-03-27T11:59:56.241Z,18028
2018-03-27T12:00:56.897Z,15852
2018-03-27T12:01:57.622Z,14328
2018-03-27T12:02:58.257Z,13248
2018-03-27T12:03:58.934Z,12300
2018-03-27T12:04:59.579Z,11516
2018-03-27T12:06:00.318Z,11220
2018-03-27T12:07:00.909Z,11576
2018-03-27T12:08:01.526Z,12544
2018-03-27T12:09:02.135Z,13828
2018-03-27T12:10:02.746Z,15216
2018-03-27T12:11:03.349Z,16128
2018-03-27T12:12:03.952Z,16572
2018-03-27T12:13:04.569Z,16868
2018-03-27T12:14:05.176Z,16664
2018-03-27T12:15:05.788Z,15928
2018-03-27T12:16:06.395Z,14632
2018-03-27T12:17:07.001Z,13388
2018-03-27T12:18:07.624Z,12108
2018-03-27T12:19:08.238Z,11164
2018-03-27T12:20:08.844Z,11236
2018-03-27T12:21:09.456Z,12144
2018-03-27T12:22:10.070Z,12640
2018-03-27T12:23:10.671Z,12012
2018-03-27T12:24:11.272Z,11060
2018-03-27T12:25:11.878Z,10224
2018-03-27T12:26:12.477Z,9472
2018-03-27T12:27:13.093Z,9164
2018-03-27T12:28:13.692Z,9012
2018-03-27T12:29:14.299Z,8728
2018-03-27T12:30:14.898Z,8448
2018-03-27T12:31:15.493Z,8228
2018-03-27T12:32:16.103Z,8024
2018-03-27T12:33:16.698Z,7940
2018-03-27T12:34:17.299Z,7940
2018-03-27T12:35:17.902Z,7948
2018-03-27T12:36:18.498Z,8076
2018-03-27T12:37:19.111Z,8276
2018-03-27T12:38:19.711Z,8416
2018-03-27T12:39:20.312Z,8644
2018-03-27T12:40:20.914Z,9164
2018-03-27T12:41:21.526Z,10088
2018-03-27T12:42:22.155Z,11480
2018-03-27T12:43:22.738Z,13052
2018-03-27T12:44:23.341Z,14308
2018-03-27T12:45:23.957Z,15448
2018-03-27T12:46:24.563Z,17084
2018-03-27T12:47:25.185Z,18560
2018-03-27T12:48:25.781Z,19164
2018-03-27T12:49:26.401Z,19456
2018-03-27T12:50:27.000Z,18912
2018-03-27T12:51:27.603Z,18936
2018-03-27T12:52:28.247Z,19168
2018-03-27T12:53:28.883Z,19456
2018-03-27T12:54:29.492Z,19140
2018-03-27T12:55:30.117Z,19744
2018-03-27T12:56:30.711Z,21888
2018-03-27T12:57:31.295Z,24448
2018-03-27T12:58:31.900Z,25888
2018-03-27T12:59:32.502Z,26560
2018-03-27T13:00:33.104Z,26720
2018-03-27T13:01:33.704Z,27040
2018-03-27T13:02:34.304Z,27520
2018-03-27T13:03:34.907Z,28576
2018-03-27T13:04:35.502Z,27648
2018-03-27T13:05:36.187Z,25376
2018-03-27T13:06:36.723Z,24096
2018-03-27T13:07:37.332Z,24288
2018-03-27T13:08:37.936Z,24544
2018-03-27T13:09:38.537Z,23872
2018-03-27T13:10:39.137Z,24096
2018-03-27T13:11:39.741Z,23808
2018-03-27T13:12:40.341Z,22496
2018-03-27T13:13:40.945Z,22016
2018-03-27T13:14:41.549Z,22304
2018-03-27T13:15:42.159Z,21856
2018-03-27T13:16:42.762Z,21696
2018-03-27T13:17:43.405Z,23200
2018-03-27T13:18:43.966Z,24256
2018-03-27T13:19:44.570Z,25088
2018-03-27T13:20:45.163Z,25280
2018-03-27T13:21:45.773Z,23136
2018-03-27T13:22:46.363Z,21376
2018-03-27T13:23:46.968Z,20544
2018-03-27T13:24:47.566Z,19712
2018-03-27T13:25:48.173Z,18852
2018-03-27T13:26:48.786Z,18680
2018-03-27T13:27:49.436Z,18248
2018-03-27T13:28:50.039Z,18112
2018-03-27T13:29:50.645Z,18020
2018-03-27T13:30:51.253Z,18188
2018-03-27T13:31:51.868Z,19616
2018-03-27T13:32:52.476Z,21824
2018-03-27T13:33:53.082Z,23648
2018-03-27T13:34:53.687Z,23840
2018-03-27T13:35:54.289Z,22816
2018-03-27T13:36:54.888Z,21600
2018-03-27T13:37:55.495Z,22144
2018-03-27T13:38:56.122Z,24896
2018-03-27T13:39:56.708Z,26656
2018-03-27T13:40:57.310Z,27680
2018-03-27T13:41:57.916Z,28608
2018-03-27T13:42:58.519Z,29568
2018-03-27T13:43:59.128Z,28064
2018-03-27T13:44:59.722Z,25472